createdAt,value
2022-11-06T00:01:18.114Z,2.77
2022-11-06T00:03:51.449Z,2.74
2022-11-06T00:06:40.413Z,2.76
2022-11-06T00:09:15.797Z,2.72
2022-11-06T00:11:47.654Z,2.69
2022-11-06T00:14:19.259Z,2.68
2022-11-06T00:16:49.319Z,2.64
2022-11-06T00:19:19.370Z,2.59
2022-11-06T00:21:49.864Z,2.55
2022-11-06T00:24:19.830Z,2.58
2022-11-06T00:26:54.611Z,2.56
2022-11-06T00:29:24.990Z,2.54
2022-11-06T00:31:55.050Z,2.53
2022-11-06T00:34:25.072Z,2.57
2022-11-06T00:36:55.048Z,2.65
2022-11-06T00:39:25.113Z,2.72
2022-11-06T00:41:55.585Z,2.71
2022-11-06T00:44:25.697Z,2.69
2022-11-06T00:46:55.694Z,2.62
2022-11-06T00:49:25.692Z,2.55
2022-11-06T00:51:55.754Z,2.54
2022-11-06T00:54:25.782Z,2.53
2022-11-06T00:56:55.810Z,2.55
2022-11-06T00:59:25.785Z,2.58
2022-11-06T01:01:55.911Z,2.60
2022-11-06T01:04:26.076Z,2.70
2022-11-06T01:06:57.000Z,2.78
2022-11-06T01:09:29.095Z,2.79
2022-11-06T01:12:15.898Z,2.97
2022-11-06T01:14:46.002Z,2.95
2022-11-06T01:17:15.823Z,2.95
2022-11-06T01:19:45.603Z,3.05
2022-11-06T01:22:16.076Z,2.98
2022-11-06T01:24:46.119Z,2.96
2022-11-06T01:27:31.119Z,2.91
2022-11-06T01:30:01.433Z,2.84
2022-11-06T01:32:31.367Z,2.79
2022-11-06T01:35:01.166Z,2.80
2022-11-06T01:37:30.917Z,2.80
2022-11-06T01:40:00.692Z,2.77
2022-11-06T01:42:30.433Z,2.77
2022-11-06T01:45:31.387Z,2.78
2022-11-06T01:48:01.097Z,2.82
2022-11-06T01:50:30.580Z,2.82
2022-11-06T01:53:00.966Z,2.77
2022-11-06T01:55:42.251Z,2.77
2022-11-06T01:58:18.628Z,2.78
2022-11-06T02:00:51.530Z,2.87
2022-11-06T02:03:23.639Z,2.89
2022-11-06T02:05:57.894Z,2.93
2022-11-06T02:08:29.445Z,2.95
2022-11-06T02:10:59.713Z,3.02
2022-11-06T02:14:24.924Z,3.00
2022-11-06T02:17:20.511Z,3.05
2022-11-06T02:20:31.538Z,3.04
2022-11-06T02:23:36.660Z,3.01
2022-11-06T02:26:27.190Z,2.98
2022-11-06T02:29:14.764Z,2.97
2022-11-06T02:31:54.493Z,2.99
2022-11-06T02:34:29.415Z,2.94
2022-11-06T02:37:15.367Z,3.00
2022-11-06T02:39:52.646Z,2.99
2022-11-06T02:42:29.614Z,2.94
2022-11-06T02:45:03.369Z,2.91
2022-11-06T02:47:36.624Z,2.94
2022-11-06T02:50:23.152Z,2.95
2022-11-06T02:53:08.169Z,2.94
2022-11-06T02:55:50.581Z,2.96
2022-11-06T02:58:38.810Z,2.97
2022-11-06T03:01:39.334Z,3.00
2022-11-06T03:05:12.706Z,3.00
2022-11-06T03:07:59.356Z,2.99
2022-11-06T03:10:50.043Z,3.02
2022-11-06T03:13:51.408Z,3.02
2022-11-06T03:16:42.619Z,3.08
2022-11-06T03:19:57.920Z,3.00
2022-11-06T03:22:49.354Z,2.98
2022-11-06T03:25:35.560Z,2.94
2022-11-06T03:29:00.305Z,2.85
2022-11-06T03:31:52.404Z,2.81
2022-11-06T03:34:53.146Z,2.75
2022-11-06T03:37:42.438Z,2.69
2022-11-06T03:40:19.813Z,2.65
2022-11-06T03:43:01.111Z,2.57
2022-11-06T03:45:36.313Z,2.51
2022-11-06T03:48:40.563Z,2.47
2022-11-06T03:51:37.361Z,2.46
2022-11-06T03:54:22.272Z,2.54
2022-11-06T03:57:12.904Z,2.60
2022-11-06T03:59:59.104Z,2.61
2022-11-06T04:02:38.106Z,2.51
2022-11-06T04:05:22.899Z,2.50
2022-11-06T04:08:16.307Z,2.62
2022-11-06T04:11:29.700Z,2.69
2022-11-06T04:14:03.009Z,2.68
2022-11-06T04:16:50.610Z,2.62
2022-11-06T04:19:23.902Z,2.57
2022-11-06T04:22:18.269Z,2.57
2022-11-06T04:25:23.373Z,2.56
2022-11-06T04:28:38.280Z,2.61
2022-11-06T04:32:29.341Z,2.53
2022-11-06T04:35:29.858Z,2.53
2022-11-06T04:38:15.150Z,2.65
2022-11-06T04:41:14.568Z,2.67
2022-11-06T04:44:25.744Z,2.68
2022-11-06T04:47:07.752Z,2.58
2022-11-06T04:49:43.995Z,2.56
2022-11-06T04:52:24.030Z,2.51
2022-11-06T04:54:58.481Z,2.47
2022-11-06T04:57:28.487Z,2.43
2022-11-06T04:59:58.532Z,2.46
2022-11-06T05:02:28.597Z,2.39
2022-11-06T05:04:58.625Z,2.36
2022-11-06T05:07:28.750Z,2.28
2022-11-06T05:09:58.720Z,2.21
2022-11-06T05:12:28.771Z,2.28
2022-11-06T05:14:58.788Z,2.19
2022-11-06T05:17:31.525Z,2.22
2022-11-06T05:20:06.502Z,2.17
2022-11-06T05:23:01.120Z,2.22
2022-11-06T05:25:40.240Z,2.25
2022-11-06T05:28:10.536Z,2.33
2022-11-06T05:30:40.679Z,2.26
2022-11-06T05:33:10.647Z,2.24
2022-11-06T05:35:40.603Z,2.19
2022-11-06T05:38:10.969Z,2.21
2022-11-06T05:40:41.095Z,2.23
2022-11-06T05:43:11.069Z,2.17
2022-11-06T05:45:41.029Z,2.23
2022-11-06T05:48:11.367Z,2.21
2022-11-06T05:50:41.666Z,2.14
2022-11-06T05:53:11.742Z,2.14
2022-11-06T05:55:41.696Z,2.18
2022-11-06T05:58:11.900Z,2.21
2022-11-06T06:00:42.171Z,2.24
2022-11-06T06:03:12.407Z,2.21
2022-11-06T06:05:42.428Z,2.28
2022-11-06T06:08:12.726Z,2.28
2022-11-06T06:10:45.944Z,2.27
2022-11-06T06:13:16.754Z,2.31
2022-11-06T06:15:46.818Z,2.35
2022-11-06T06:18:16.932Z,2.38
2022-11-06T06:20:47.032Z,2.41
2022-11-06T06:23:16.973Z,2.39
2022-11-06T06:25:46.967Z,2.42
2022-11-06T06:28:17.075Z,2.36
2022-11-06T06:30:47.121Z,2.34
2022-11-06T06:33:17.089Z,2.47
2022-11-06T06:35:47.072Z,2.58
2022-11-06T06:38:17.005Z,2.58
2022-11-06T06:40:49.833Z,2.58
2022-11-06T06:43:19.852Z,2.56
2022-11-06T06:45:49.868Z,2.63
2022-11-06T06:48:20.000Z,2.62
2022-11-06T06:50:50.004Z,2.72
2022-11-06T06:53:21.381Z,2.74
2022-11-06T06:55:51.787Z,2.71
2022-11-06T06:58:22.075Z,2.72
2022-11-06T07:00:52.615Z,2.81
2022-11-06T07:03:22.694Z,2.86
2022-11-06T07:05:52.672Z,2.82
2022-11-06T07:08:22.653Z,2.93
2022-11-06T07:10:52.820Z,2.96
2022-11-06T07:13:22.828Z,3.01
2022-11-06T07:15:52.805Z,3.04
2022-11-06T07:18:23.675Z,3.10
2022-11-06T07:20:54.359Z,3.12
2022-11-06T07:23:24.312Z,3.23
2022-11-06T07:25:55.010Z,3.27
2022-11-06T07:28:25.121Z,3.41
2022-11-06T07:31:00.986Z,3.41
2022-11-06T07:33:31.671Z,3.44
2022-11-06T07:36:13.092Z,3.52
2022-11-06T07:38:44.338Z,3.57
2022-11-06T07:41:16.146Z,3.64
2022-11-06T07:43:50.040Z,3.76
2022-11-06T07:46:20.027Z,3.82
2022-11-06T07:48:50.117Z,4.06
2022-11-06T07:51:20.086Z,4.08
2022-11-06T07:53:50.048Z,4.06
2022-11-06T07:56:20.015Z,4.05
2022-11-06T07:58:49.979Z,4.08
2022-11-06T08:01:19.989Z,4.18
2022-11-06T08:03:50.050Z,4.34
2022-11-06T08:06:20.120Z,4.42
2022-11-06T08:08:51.828Z,4.54
2022-11-06T08:11:24.890Z,4.59
2022-11-06T08:13:54.875Z,4.69
2022-11-06T08:16:24.942Z,4.81
2022-11-06T08:18:55.721Z,4.85
2022-11-06T08:21:28.383Z,4.94
2022-11-06T08:24:01.154Z,5.10
2022-11-06T08:26:31.977Z,5.38
2022-11-06T08:29:01.977Z,5.48
2022-11-06T08:31:32.147Z,5.59
2022-11-06T08:34:02.208Z,5.69
2022-11-06T08:36:45.611Z,5.91
2022-11-06T08:39:19.232Z,6.08
2022-11-06T08:41:49.183Z,6.41
2022-11-06T08:44:19.199Z,6.48
2022-11-06T08:46:52.093Z,6.61
2022-11-06T08:49:22.306Z,6.79
2022-11-06T08:51:52.414Z,6.83
2022-11-06T08:54:22.555Z,6.89
2022-11-06T08:56:52.656Z,6.88
2022-11-06T08:59:22.654Z,6.80
2022-11-06T09:01:52.746Z,7.00
2022-11-06T09:04:23.427Z,6.80
2022-11-06T09:06:53.791Z,6.83
2022-11-06T09:09:23.867Z,6.76
2022-11-06T09:11:53.923Z,6.79
2022-11-06T09:14:23.928Z,6.88
2022-11-06T09:16:54.738Z,6.75
2022-11-06T09:19:24.691Z,6.87
2022-11-06T09:21:55.150Z,6.86
2022-11-06T09:24:49.567Z,6.89
2022-11-06T09:27:13.544Z,7.00
2022-11-06T09:29:44.754Z,7.01
2022-11-06T09:32:13.456Z,7.12
2022-11-06T09:34:43.530Z,7.19
2022-11-06T09:37:13.627Z,7.27
2022-11-06T09:39:43.796Z,7.38
2022-11-06T09:43:10.853Z,7.49
2022-11-06T09:45:41.361Z,7.50
2022-11-06T09:48:15.715Z,7.85
2022-11-06T09:51:10.879Z,7.82
2022-11-06T09:54:01.506Z,8.00
2022-11-06T09:56:41.851Z,8.10
2022-11-06T09:59:20.741Z,8.38
2022-11-06T10:02:01.897Z,8.64
2022-11-06T10:05:00.574Z,8.68
2022-11-06T10:07:39.652Z,8.93
2022-11-06T10:10:21.094Z,9.02
2022-11-06T10:13:28.610Z,9.07
2022-11-06T10:16:08.301Z,9.24
2022-11-06T10:19:06.785Z,9.24
2022-11-06T10:22:07.728Z,9.44
2022-11-06T10:25:08.246Z,9.38
2022-11-06T10:28:00.875Z,9.16
2022-11-06T10:31:06.946Z,9.20
2022-11-06T10:34:03.206Z,9.30
2022-11-06T10:36:57.081Z,9.54
2022-11-06T10:39:36.158Z,9.36
2022-11-06T10:42:41.008Z,9.37
2022-11-06T10:45:18.586Z,9.31
2022-11-06T10:48:31.009Z,9.20
2022-11-06T10:51:37.990Z,8.94
2022-11-06T10:54:52.291Z,8.95
2022-11-06T10:57:44.673Z,8.70
2022-11-06T11:00:16.399Z,8.84
2022-11-06T11:02:59.482Z,8.50
2022-11-06T11:05:44.379Z,8.74
2022-11-06T11:08:37.050Z,8.96
2022-11-06T11:11:20.046Z,8.64
2022-11-06T11:14:02.380Z,8.94
2022-11-06T11:16:42.780Z,9.11
2022-11-06T11:19:41.571Z,9.01
2022-11-06T11:22:18.738Z,8.98
2022-11-06T11:25:09.181Z,9.06
2022-11-06T11:27:46.045Z,9.05
2022-11-06T11:30:29.751Z,9.11
2022-11-06T11:33:00.017Z,9.21
2022-11-06T11:35:31.989Z,9.13
2022-11-06T11:38:16.938Z,8.98
2022-11-06T11:40:46.087Z,8.96
2022-11-06T11:43:23.320Z,8.86
2022-11-06T11:46:20.850Z,8.99
2022-11-06T11:48:58.316Z,8.98
2022-11-06T11:51:47.932Z,9.11
2022-11-06T11:54:27.930Z,9.12
2022-11-06T11:57:08.371Z,9.21
2022-11-06T11:59:49.789Z,9.18
2022-11-06T12:02:44.219Z,9.10
2022-11-06T12:05:32.449Z,9.11
2022-11-06T12:08:05.048Z,9.39
2022-11-06T12:10:42.743Z,9.34
2022-11-06T12:13:16.418Z,9.16
2022-11-06T12:16:00.505Z,9.25
2022-11-06T12:18:46.259Z,9.47
2022-11-06T12:21:38.911Z,9.48
2022-11-06T12:24:32.417Z,9.40
2022-11-06T12:27:22.030Z,9.71
2022-11-06T12:30:15.897Z,9.68
2022-11-06T12:33:18.385Z,9.63
2022-11-06T12:36:20.285Z,9.74
2022-11-06T12:39:11.987Z,9.71
2022-11-06T12:41:52.136Z,9.77
2022-11-06T12:44:22.169Z,9.79
2022-11-06T12:47:34.464Z,9.87
2022-11-06T12:50:36.535Z,9.95
2022-11-06T12:53:48.602Z,9.92
2022-11-06T12:57:16.511Z,10.02
2022-11-06T13:00:13.400Z,9.85
2022-11-06T13:03:32.701Z,9.92
2022-11-06T13:06:27.834Z,9.86
2022-11-06T13:09:24.736Z,9.86
2022-11-06T13:12:32.637Z,9.85
2022-11-06T13:15:36.001Z,9.93
2022-11-06T13:18:52.879Z,9.95
2022-11-06T13:21:52.452Z,9.77
2022-11-06T13:25:08.793Z,9.70
2022-11-06T13:28:45.497Z,9.67
2022-11-06T13:31:25.698Z,9.75
2022-11-06T13:34:02.954Z,9.80
2022-11-06T13:36:37.918Z,9.64
2022-11-06T13:39:34.763Z,9.73
2022-11-06T13:42:40.034Z,9.56
2022-11-06T13:45:17.436Z,9.60
2022-11-06T13:48:37.389Z,9.55
2022-11-06T13:51:37.226Z,9.50
2022-11-06T13:54:28.740Z,9.44
2022-11-06T13:57:44.649Z,9.33
2022-11-06T14:00:52.458Z,9.35
2022-11-06T14:04:22.785Z,9.37
2022-11-06T14:07:04.383Z,9.32
2022-11-06T14:09:43.025Z,9.46
2022-11-06T14:12:22.616Z,9.33
2022-11-06T14:15:29.211Z,9.34
2022-11-06T14:18:02.138Z,9.33
2022-11-06T14:20:38.986Z,9.17
2022-11-06T14:23:30.500Z,9.02
2022-11-06T14:26:38.911Z,8.92
2022-11-06T14:29:27.188Z,8.94
2022-11-06T14:32:31.987Z,8.83
2022-11-06T14:35:29.952Z,8.84
2022-11-06T14:38:29.771Z,8.75
2022-11-06T14:41:01.675Z,8.84
2022-11-06T14:43:35.255Z,8.71
2022-11-06T14:46:22.738Z,8.66
2022-11-06T14:49:09.963Z,8.55
2022-11-06T14:51:40.199Z,8.55
2022-11-06T14:54:25.087Z,8.47
2022-11-06T14:56:57.099Z,8.38
2022-11-06T14:59:40.814Z,8.25
2022-11-06T15:02:30.380Z,8.10
2022-11-06T15:05:17.607Z,8.05
2022-11-06T15:10:43.295Z,7.70
2022-11-06T15:13:20.095Z,7.51
2022-11-06T15:16:03.223Z,7.38
2022-11-06T15:18:45.691Z,7.20
2022-11-06T15:21:29.795Z,7.04
2022-11-06T15:24:31.384Z,6.89
2022-11-06T15:27:16.343Z,6.75
2022-11-06T15:29:56.096Z,6.60
2022-11-06T15:32:38.214Z,6.46
2022-11-06T15:35:31.329Z,6.32
2022-11-06T15:38:20.116Z,6.20
2022-11-06T15:40:54.697Z,6.08
2022-11-06T15:43:34.351Z,5.99
2022-11-06T15:46:28.439Z,5.88
2022-11-06T15:49:21.180Z,5.77
2022-11-06T15:52:03.364Z,5.70
2022-11-06T15:54:44.094Z,5.68
2022-11-06T15:57:30.009Z,5.64
2022-11-06T16:00:24.889Z,5.56
2022-11-06T16:03:06.621Z,5.47
2022-11-06T16:05:37.897Z,5.41
2022-11-06T16:08:12.572Z,5.34
2022-11-06T16:10:48.355Z,5.26
2022-11-06T16:13:24.367Z,5.11
2022-11-06T16:16:02.832Z,5.03
2022-11-06T16:18:49.431Z,4.95
2022-11-06T16:21:27.065Z,4.87
2022-11-06T16:24:20.289Z,4.83
2022-11-06T16:26:55.513Z,4.83
2022-11-06T16:29:31.759Z,4.84
2022-11-06T16:32:41.324Z,4.81
2022-11-06T16:35:37.068Z,4.78
2022-11-06T16:38:39.340Z,4.76
2022-11-06T16:41:08.450Z,4.73
2022-11-06T16:43:39.419Z,4.71
2022-11-06T16:46:09.494Z,4.68
2022-11-06T16:48:45.622Z,4.77
2022-11-06T16:51:33.969Z,4.73
2022-11-06T16:54:04.523Z,4.68
2022-11-06T16:56:35.664Z,4.65
2022-11-06T16:59:22.563Z,4.62
2022-11-06T17:01:53.200Z,4.58
2022-11-06T17:04:29.884Z,4.49
2022-11-06T17:07:00.128Z,4.45
2022-11-06T17:09:35.672Z,4.41
2022-11-06T17:12:16.252Z,4.40
2022-11-06T17:14:48.528Z,4.36
2022-11-06T17:17:26.879Z,4.31
2022-11-06T17:19:56.906Z,4.28
2022-11-06T17:22:26.914Z,4.25
2022-11-06T17:24:56.913Z,4.23
2022-11-06T17:27:26.931Z,4.18
2022-11-06T17:29:57.073Z,4.14
2022-11-06T17:32:27.101Z,4.13
2022-11-06T17:34:57.125Z,4.11
2022-11-06T17:37:30.094Z,4.12
2022-11-06T17:40:02.984Z,4.16
2022-11-06T17:42:33.011Z,4.18
2022-11-06T17:45:03.181Z,4.24
2022-11-06T17:47:33.147Z,4.30
2022-11-06T17:50:03.749Z,4.35
2022-11-06T17:52:33.927Z,4.36
2022-11-06T17:55:06.138Z,4.40
2022-11-06T17:57:36.543Z,4.46
2022-11-06T18:00:08.307Z,4.48
2022-11-06T18:02:59.595Z,4.51
2022-11-06T18:05:29.142Z,4.52
2022-11-06T18:07:59.086Z,4.58
2022-11-06T18:10:30.716Z,4.60
2022-11-06T18:13:00.968Z,4.59
2022-11-06T18:15:35.746Z,4.64
2022-11-06T18:18:08.165Z,4.61
2022-11-06T18:20:47.412Z,4.58
2022-11-06T18:23:17.757Z,4.54
2022-11-06T18:25:58.821Z,4.51
2022-11-06T18:28:28.820Z,4.52
2022-11-06T18:30:59.986Z,4.47
2022-11-06T18:33:30.817Z,4.51
2022-11-06T18:36:04.797Z,4.48
2022-11-06T18:38:36.098Z,4.48
2022-11-06T18:41:17.543Z,4.43
2022-11-06T18:43:49.222Z,4.45
2022-11-06T18:46:19.553Z,4.45
2022-11-06T18:48:50.297Z,4.44
2022-11-06T18:51:35.489Z,4.41
2022-11-06T18:54:11.479Z,4.41
2022-11-06T18:56:42.421Z,4.40
2022-11-06T18:59:19.680Z,4.34
2022-11-06T19:01:49.927Z,4.39
2022-11-06T19:04:21.948Z,4.40
2022-11-06T19:06:52.032Z,4.35
2022-11-06T19:09:25.245Z,4.34
2022-11-06T19:11:55.203Z,4.29
2022-11-06T19:14:25.175Z,4.27
2022-11-06T19:16:55.165Z,4.17
2022-11-06T19:19:26.020Z,4.11
2022-11-06T19:21:56.287Z,4.02
2022-11-06T19:24:26.257Z,3.99
2022-11-06T19:26:56.367Z,3.97
2022-11-06T19:29:26.346Z,3.92
2022-11-06T19:32:01.568Z,3.88
2022-11-06T19:34:36.575Z,3.82
2022-11-06T19:37:08.949Z,3.81
2022-11-06T19:39:38.788Z,3.82
2022-11-06T19:42:09.078Z,3.85
2022-11-06T19:44:38.850Z,3.82
2022-11-06T19:47:08.665Z,3.85
2022-11-06T19:49:38.482Z,3.86
2022-11-06T19:52:44.169Z,3.95
2022-11-06T19:55:25.793Z,3.98
2022-11-06T19:57:49.743Z,4.01
2022-11-06T20:00:19.403Z,4.00
2022-11-06T20:02:50.855Z,4.06
2022-11-06T20:05:21.107Z,4.11
2022-11-06T20:07:50.842Z,4.13
2022-11-06T20:10:20.652Z,4.18
2022-11-06T20:12:50.406Z,4.32
2022-11-06T20:15:23.901Z,4.48
2022-11-06T20:17:54.416Z,4.39
2022-11-06T20:20:25.398Z,4.39
2022-11-06T20:22:55.594Z,4.49
2022-11-06T20:25:25.171Z,4.53
2022-11-06T20:27:55.220Z,4.49
2022-11-06T20:30:24.901Z,4.55
2022-11-06T20:32:54.685Z,4.67
2022-11-06T20:35:24.377Z,4.61
2022-11-06T20:37:54.163Z,4.54
2022-11-06T20:40:23.962Z,4.51
2022-11-06T20:42:53.675Z,4.51
2022-11-06T20:45:23.786Z,4.60
2022-11-06T20:47:54.073Z,4.55
2022-11-06T20:50:23.775Z,4.54
2022-11-06T20:52:53.514Z,4.61
2022-11-06T20:55:23.175Z,4.61
2022-11-06T20:57:52.936Z,4.58
2022-11-06T21:00:22.969Z,4.55
2022-11-06T21:02:56.268Z,4.55
2022-11-06T21:05:29.036Z,4.62
2022-11-06T21:07:58.830Z,4.51
2022-11-06T21:10:28.569Z,4.52
2022-11-06T21:12:59.546Z,4.49
2022-11-06T21:15:29.555Z,4.52
2022-11-06T21:17:59.214Z,4.55
2022-11-06T21:20:28.994Z,4.54
2022-11-06T21:22:59.061Z,4.54
2022-11-06T21:25:29.009Z,4.59
2022-11-06T21:27:58.858Z,4.50
2022-11-06T21:30:29.130Z,4.53
2022-11-06T21:32:59.005Z,4.49
2022-11-06T21:35:28.882Z,4.46
2022-11-06T21:38:01.657Z,4.51
2022-11-06T21:40:31.702Z,4.64
2022-11-06T21:42:59.520Z,4.56
2022-11-06T21:45:29.576Z,4.57
2022-11-06T21:47:59.412Z,4.47
2022-11-06T21:50:30.653Z,4.55
2022-11-06T21:53:18.976Z,4.45
2022-11-06T21:56:01.690Z,4.41
2022-11-06T21:58:31.092Z,4.39
2022-11-06T22:01:06.734Z,4.43
2022-11-06T22:03:37.399Z,4.43
2022-11-06T22:06:13.175Z,4.48
2022-11-06T22:08:45.536Z,4.43
2022-11-06T22:11:30.716Z,4.59
2022-11-06T22:14:09.079Z,4.58
2022-11-06T22:16:43.363Z,4.65
2022-11-06T22:19:15.725Z,4.76
2022-11-06T22:21:45.248Z,4.73
2022-11-06T22:24:15.827Z,4.74
2022-11-06T22:26:44.383Z,4.67
2022-11-06T22:29:18.953Z,4.69
2022-11-06T22:31:46.453Z,4.67
2022-11-06T22:34:16.446Z,4.65
2022-11-06T22:36:46.533Z,4.70
2022-11-06T22:39:16.382Z,4.77
2022-11-06T22:41:46.011Z,4.75
2022-11-06T22:44:16.333Z,4.71
2022-11-06T22:46:47.022Z,4.77
2022-11-06T22:49:16.844Z,4.68
2022-11-06T22:51:48.037Z,4.68
2022-11-06T22:54:16.537Z,4.65
2022-11-06T22:56:46.727Z,4.79
2022-11-06T22:59:16.428Z,4.72
2022-11-06T23:01:46.579Z,4.67
2022-11-06T23:04:16.753Z,4.63
2022-11-06T23:06:46.712Z,4.60
2022-11-06T23:09:16.589Z,4.58
2022-11-06T23:11:47.293Z,4.58
2022-11-06T23:14:17.400Z,4.56
2022-11-06T23:17:01.102Z,4.59
2022-11-06T23:19:32.277Z,4.63
2022-11-06T23:22:22.427Z,4.62
2022-11-06T23:24:53.006Z,4.62
2022-11-06T23:27:22.499Z,4.64
2022-11-06T23:29:52.334Z,4.60
2022-11-06T23:32:22.668Z,4.62
2022-11-06T23:34:53.115Z,4.60
2022-11-06T23:37:23.284Z,4.63
2022-11-06T23:39:54.068Z,4.67
2022-11-06T23:42:24.460Z,4.80
2022-11-06T23:45:13.137Z,4.79
2022-11-06T23:47:42.896Z,4.81
2022-11-06T23:50:15.131Z,4.80
2022-11-06T23:52:42.518Z,4.79
2022-11-06T23:55:12.778Z,4.83
2022-11-06T23:57:42.998Z,4.82
